Torrent — 5BWL2 — position and weather

sailwx.info

Track history (hours):
 
Tides and Currents Weather Stations Pressure Air Temp Water Temp Dewpoint Dewpoint Depression Visibility Wind Speed Wind Dir Waves Ship Positions

Torrent

Last reported at 2018-Jan-01 00:26 UTC. Time now 2018-Jan-18 00:07 UTC.
Position N 45°29' W 073°31'.
Warning: this ship's position is 16 days out of date.

Length 185 m; draft 8.1 m.

Type: Cargo ship. MMSI: 209016000.

Date/timePositionNaut miles runAvg speedWind from/ knotsBaromVisibWave heightAir tempDewpointWater temp
2018-Jan-01 00:26N 45°29' W 073°31'5 1.1
2017-Dec-31 19:42N 45°24' W 073°35'1 3.1
2017-Dec-31 19:28N 45°24' W 073°36'1 1.1
2017-Dec-31 19:00N 45°24' W 073°37'0 0.0
2017-Dec-31 18:30N 45°24' W 073°37'0 0.0
2017-Dec-31 18:00N 45°24' W 073°37'0 0.0
2017-Dec-31 17:30N 45°24' W 073°37'0 0.0
2017-Dec-31 16:56N 45°24' W 073°37'0 0.0
2017-Dec-31 16:29N 45°24' W 073°37'0 0.0
2017-Dec-31 16:00N 45°24' W 073°37'0 0.0
2017-Dec-31 15:30N 45°24' W 073°37'0 0.0
2017-Dec-31 15:00N 45°24' W 073°37'0 0.0
2017-Dec-31 14:30N 45°24' W 073°37'0 0.0
2017-Dec-31 14:00N 45°24' W 073°37'0 0.0
2017-Dec-31 13:30N 45°24' W 073°37'0 0.0
2017-Dec-31 13:00N 45°24' W 073°37'0 0.0
2017-Dec-31 12:30N 45°24' W 073°37'0 0.0
2017-Dec-31 11:51N 45°24' W 073°37'0 0.0
2017-Dec-31 11:05N 45°24' W 073°37'0 0.0
2017-Dec-31 10:54N 45°24' W 073°37'0 0.0
2017-Dec-31 10:30N 45°24' W 073°37'0 0.0
2017-Dec-31 09:55N 45°24' W 073°37'0 0.0
2017-Dec-31 09:30N 45°24' W 073°37'0 0.0
2017-Dec-31 09:00N 45°24' W 073°37'0 0.0
2017-Dec-31 08:29N 45°24' W 073°37'0 0.0
2017-Dec-31 07:39N 45°24' W 073°37'0 0.0
2017-Dec-31 07:30N 45°24' W 073°37'0 0.0
2017-Dec-31 06:58N 45°24' W 073°37'0 0.0
2017-Dec-31 06:30N 45°24' W 073°37'0 0.0
2017-Dec-31 06:00N 45°24' W 073°37'0 0.0
2017-Dec-31 05:30N 45°24' W 073°37'0 0.0
2017-Dec-31 04:50N 45°24' W 073°37'0 0.0
2017-Dec-31 04:26N 45°24' W 073°37'1 2.8
2017-Dec-31 03:55N 45°24' W 073°39'2 5.1
2017-Dec-31 03:30N 45°25' W 073°42'4 8.2
2017-Dec-31 03:00N 45°24' W 073°47'612.5
2017-Dec-31 02:30N 45°20' W 073°54'1 2.5
2017-Dec-31 02:00N 45°19' W 073°55'0 0.0
2017-Dec-31 01:30N 45°19' W 073°55'0 0.0
2017-Dec-31 01:00N 45°19' W 073°55'0 0.4
2017-Dec-31 00:30N 45°19' W 073°55'1 1.2
2017-Dec-31 00:00N 45°18' W 073°56'0 0.1
2017-Dec-30 23:30N 45°18' W 073°56'0 0.7
2017-Dec-30 22:59N 45°18' W 073°56'0 0.0
2017-Dec-30 22:27N 45°18' W 073°56'0 0.0
2017-Dec-30 21:59N 45°18' W 073°56'0 0.0
2017-Dec-30 21:30N 45°18' W 073°56'0 0.0
2017-Dec-30 21:00N 45°18' W 073°56'0 0.0
2017-Dec-30 20:30N 45°18' W 073°56'0 0.0
2017-Dec-30 20:00N 45°18' W 073°56'0 0.0
2017-Dec-30 19:30N 45°18' W 073°56'0 0.0
2017-Dec-30 19:00N 45°18' W 073°56'0 0.0
2017-Dec-30 18:30N 45°18' W 073°56'0 0.0
2017-Dec-30 18:00N 45°18' W 073°56'0 0.0
2017-Dec-30 17:30N 45°18' W 073°56'0 0.0
2017-Dec-30 17:00N 45°18' W 073°56'0 0.0
2017-Dec-30 16:31N 45°18' W 073°56'0 0.0
2017-Dec-30 16:00N 45°18' W 073°56'0 0.0
2017-Dec-30 15:30N 45°18' W 073°56'0 0.0
2017-Dec-30 15:00N 45°18' W 073°56'0 0.0
2017-Dec-30 14:30N 45°18' W 073°56'0 0.0
2017-Dec-30 14:00N 45°18' W 073°56'0 0.0
2017-Dec-30 13:30N 45°18' W 073°56'0 0.0
2017-Dec-30 13:01N 45°18' W 073°56'0 0.0
2017-Dec-30 12:30N 45°18' W 073°56'0 0.0
2017-Dec-30 12:00N 45°18' W 073°56'0 0.0
2017-Dec-30 11:29N 45°18' W 073°56'0 0.0
2017-Dec-30 11:00N 45°18' W 073°56'0 0.0
2017-Dec-30 10:25N 45°18' W 073°56'0 0.0
2017-Dec-30 10:01N 45°18' W 073°56'0 0.0
2017-Dec-30 09:31N 45°18' W 073°56'0 0.0
2017-Dec-30 09:00N 45°18' W 073°56'0 0.0
2017-Dec-30 08:30N 45°18' W 073°56'0 0.0
2017-Dec-30 08:00N 45°18' W 073°56'0 0.0
2017-Dec-30 07:31N 45°18' W 073°56'0 0.0
2017-Dec-30 07:00N 45°18' W 073°56'0 0.0
2017-Dec-30 06:30N 45°18' W 073°56'0 0.0
2017-Dec-30 06:00N 45°18' W 073°56'0 0.0
2017-Dec-30 05:30N 45°18' W 073°56'0 0.0
2017-Dec-30 04:44N 45°18' W 073°56'0 0.0
2017-Dec-30 04:23N 45°18' W 073°56'0 0.0
2017-Dec-30 04:00N 45°18' W 073°56'0 0.0
2017-Dec-30 03:30N 45°18' W 073°56'0 0.0
2017-Dec-30 03:00N 45°18' W 073°56'0 0.0
2017-Dec-30 02:30N 45°18' W 073°56'0 0.0
2017-Dec-30 02:00N 45°18' W 073°56'0 0.0
2017-Dec-30 01:30N 45°18' W 073°56'0 0.0
2017-Dec-30 01:00N 45°18' W 073°56'0 0.0
2017-Dec-30 00:31N 45°18' W 073°56'0 0.0
2017-Dec-30 00:00N 45°18' W 073°56'0 0.0
2017-Dec-29 23:30N 45°18' W 073°56'0 0.0
2017-Dec-29 23:00N 45°18' W 073°56'0 0.0
2017-Dec-29 22:30N 45°18' W 073°56'0 0.0
2017-Dec-29 21:59N 45°18' W 073°56'0 0.0
2017-Dec-29 21:30N 45°18' W 073°56'0 0.0
2017-Dec-29 20:59N 45°18' W 073°56'0 0.1
2017-Dec-29 20:30N 45°18' W 073°56'0 0.6
2017-Dec-29 20:00N 45°18' W 073°56'1 2.2
2017-Dec-29 19:25N 45°16' W 073°57'0 0.9
2017-Dec-29 18:59N 45°16' W 073°57'0 0.0
2017-Dec-29 18:30N 45°16' W 073°57'0 0.0
2017-Dec-29 18:00N 45°16' W 073°57'0 0.0
2017-Dec-29 17:30N 45°16' W 073°57'0 0.0
2017-Dec-29 17:00N 45°16' W 073°57'0 0.0
2017-Dec-29 16:30N 45°16' W 073°57'0 0.0
2017-Dec-29 16:00N 45°16' W 073°57'0 0.0
2017-Dec-29 15:30N 45°16' W 073°57'0 0.0
2017-Dec-29 15:00N 45°16' W 073°57'0 0.0
2017-Dec-29 14:30N 45°16' W 073°57'0 0.0
2017-Dec-29 14:00N 45°16' W 073°57'0 0.0
2017-Dec-29 13:30N 45°16' W 073°57'0 0.0
2017-Dec-29 12:42N 45°16' W 073°57'0 0.1
2017-Dec-29 12:30N 45°16' W 073°57'0 0.0
2017-Dec-29 11:55N 45°16' W 073°57'0 0.0
2017-Dec-29 11:30N 45°16' W 073°57'0 0.0
2017-Dec-29 11:00N 45°16' W 073°57'0 0.0
2017-Dec-29 10:30N 45°16' W 073°57'0 0.0
2017-Dec-29 10:00N 45°16' W 073°57'0 0.0
2017-Dec-29 09:30N 45°16' W 073°57'0 0.0
2017-Dec-29 09:00N 45°16' W 073°57'0 0.0
2017-Dec-29 08:30N 45°16' W 073°57'0 0.0
2017-Dec-29 08:00N 45°16' W 073°57'0 0.1
2017-Dec-29 07:30N 45°16' W 073°57'0 0.0
2017-Dec-29 07:00N 45°16' W 073°57'0 0.0
2017-Dec-29 06:29N 45°16' W 073°57'0 0.0
2017-Dec-29 05:59N 45°16' W 073°57'0 0.0
2017-Dec-29 05:30N 45°16' W 073°57'0 0.0
2017-Dec-29 05:00N 45°16' W 073°57'0 0.0
2017-Dec-29 04:30N 45°16' W 073°57'0 0.0
2017-Dec-29 04:00N 45°16' W 073°57'0 0.0
2017-Dec-29 03:29N 45°16' W 073°57'0 0.4
2017-Dec-29 02:58N 45°16' W 073°57'4 8.2
2017-Dec-29 02:27N 45°13' W 074°02'  
Track history (hours):
 
Tides and Currents Weather Stations Pressure Air Temp Water Temp Dewpoint Dewpoint Depression Visibility Wind Speed Wind Dir Waves Ship Positions

Torrent

Last reported at 2018-Jan-01 00:26 UTC. Time now 2018-Jan-18 00:07 UTC.
Position N 45°29' W 073°31'.
Warning: this ship's position is 16 days out of date.

Length 185 m; draft 8.1 m.

Type: Cargo ship. MMSI: 209016000.

Date/timePositionNaut miles runAvg speedWind from/ knotsBaromVisibWave heightAir tempDewpointWater temp
2018-Jan-01 00:26N 45°29' W 073°31'5 1.1
2017-Dec-31 19:42N 45°24' W 073°35'1 3.1
2017-Dec-31 19:28N 45°24' W 073°36'1 1.1
2017-Dec-31 19:00N 45°24' W 073°37'0 0.0
2017-Dec-31 18:30N 45°24' W 073°37'0 0.0
2017-Dec-31 18:00N 45°24' W 073°37'0 0.0
2017-Dec-31 17:30N 45°24' W 073°37'0 0.0
2017-Dec-31 16:56N 45°24' W 073°37'0 0.0
2017-Dec-31 16:29N 45°24' W 073°37'0 0.0
2017-Dec-31 16:00N 45°24' W 073°37'0 0.0
2017-Dec-31 15:30N 45°24' W 073°37'0 0.0
2017-Dec-31 15:00N 45°24' W 073°37'0 0.0
2017-Dec-31 14:30N 45°24' W 073°37'0 0.0
2017-Dec-31 14:00N 45°24' W 073°37'0 0.0
2017-Dec-31 13:30N 45°24' W 073°37'0 0.0
2017-Dec-31 13:00N 45°24' W 073°37'0 0.0
2017-Dec-31 12:30N 45°24' W 073°37'0 0.0
2017-Dec-31 11:51N 45°24' W 073°37'0 0.0
2017-Dec-31 11:05N 45°24' W 073°37'0 0.0
2017-Dec-31 10:54N 45°24' W 073°37'0 0.0
2017-Dec-31 10:30N 45°24' W 073°37'0 0.0
2017-Dec-31 09:55N 45°24' W 073°37'0 0.0
2017-Dec-31 09:30N 45°24' W 073°37'0 0.0
2017-Dec-31 09:00N 45°24' W 073°37'0 0.0
2017-Dec-31 08:29N 45°24' W 073°37'0 0.0
2017-Dec-31 07:39N 45°24' W 073°37'0 0.0
2017-Dec-31 07:30N 45°24' W 073°37'0 0.0
2017-Dec-31 06:58N 45°24' W 073°37'0 0.0
2017-Dec-31 06:30N 45°24' W 073°37'0 0.0
2017-Dec-31 06:00N 45°24' W 073°37'0 0.0
2017-Dec-31 05:30N 45°24' W 073°37'0 0.0
2017-Dec-31 04:50N 45°24' W 073°37'0 0.0
2017-Dec-31 04:26N 45°24' W 073°37'1 2.8
2017-Dec-31 03:55N 45°24' W 073°39'2 5.1
2017-Dec-31 03:30N 45°25' W 073°42'4 8.2
2017-Dec-31 03:00N 45°24' W 073°47'612.5
2017-Dec-31 02:30N 45°20' W 073°54'1 2.5
2017-Dec-31 02:00N 45°19' W 073°55'0 0.0
2017-Dec-31 01:30N 45°19' W 073°55'0 0.0
2017-Dec-31 01:00N 45°19' W 073°55'0 0.4
2017-Dec-31 00:30N 45°19' W 073°55'1 1.2
2017-Dec-31 00:00N 45°18' W 073°56'0 0.1
2017-Dec-30 23:30N 45°18' W 073°56'0 0.7
2017-Dec-30 22:59N 45°18' W 073°56'0 0.0
2017-Dec-30 22:27N 45°18' W 073°56'0 0.0
2017-Dec-30 21:59N 45°18' W 073°56'0 0.0
2017-Dec-30 21:30N 45°18' W 073°56'0 0.0
2017-Dec-30 21:00N 45°18' W 073°56'0 0.0
2017-Dec-30 20:30N 45°18' W 073°56'0 0.0
2017-Dec-30 20:00N 45°18' W 073°56'0 0.0
2017-Dec-30 19:30N 45°18' W 073°56'0 0.0
2017-Dec-30 19:00N 45°18' W 073°56'0 0.0
2017-Dec-30 18:30N 45°18' W 073°56'0 0.0
2017-Dec-30 18:00N 45°18' W 073°56'0 0.0
2017-Dec-30 17:30N 45°18' W 073°56'0 0.0
2017-Dec-30 17:00N 45°18' W 073°56'0 0.0
2017-Dec-30 16:31N 45°18' W 073°56'0 0.0
2017-Dec-30 16:00N 45°18' W 073°56'0 0.0
2017-Dec-30 15:30N 45°18' W 073°56'0 0.0
2017-Dec-30 15:00N 45°18' W 073°56'0 0.0
2017-Dec-30 14:30N 45°18' W 073°56'0 0.0
2017-Dec-30 14:00N 45°18' W 073°56'0 0.0
2017-Dec-30 13:30N 45°18' W 073°56'0 0.0
2017-Dec-30 13:01N 45°18' W 073°56'0 0.0
2017-Dec-30 12:30N 45°18' W 073°56'0 0.0
2017-Dec-30 12:00N 45°18' W 073°56'0 0.0
2017-Dec-30 11:29N 45°18' W 073°56'0 0.0
2017-Dec-30 11:00N 45°18' W 073°56'0 0.0
2017-Dec-30 10:25N 45°18' W 073°56'0 0.0
2017-Dec-30 10:01N 45°18' W 073°56'0 0.0
2017-Dec-30 09:31N 45°18' W 073°56'0 0.0
2017-Dec-30 09:00N 45°18' W 073°56'0 0.0
2017-Dec-30 08:30N 45°18' W 073°56'0 0.0
2017-Dec-30 08:00N 45°18' W 073°56'0 0.0
2017-Dec-30 07:31N 45°18' W 073°56'0 0.0
2017-Dec-30 07:00N 45°18' W 073°56'0 0.0
2017-Dec-30 06:30N 45°18' W 073°56'0 0.0
2017-Dec-30 06:00N 45°18' W 073°56'0 0.0
2017-Dec-30 05:30N 45°18' W 073°56'0 0.0
2017-Dec-30 04:44N 45°18' W 073°56'0 0.0
2017-Dec-30 04:23N 45°18' W 073°56'0 0.0
2017-Dec-30 04:00N 45°18' W 073°56'0 0.0
2017-Dec-30 03:30N 45°18' W 073°56'0 0.0
2017-Dec-30 03:00N 45°18' W 073°56'0 0.0
2017-Dec-30 02:30N 45°18' W 073°56'0 0.0
2017-Dec-30 02:00N 45°18' W 073°56'0 0.0
2017-Dec-30 01:30N 45°18' W 073°56'0 0.0
2017-Dec-30 01:00N 45°18' W 073°56'0 0.0
2017-Dec-30 00:31N 45°18' W 073°56'0 0.0
2017-Dec-30 00:00N 45°18' W 073°56'0 0.0
2017-Dec-29 23:30N 45°18' W 073°56'0 0.0
2017-Dec-29 23:00N 45°18' W 073°56'0 0.0
2017-Dec-29 22:30N 45°18' W 073°56'0 0.0
2017-Dec-29 21:59N 45°18' W 073°56'0 0.0
2017-Dec-29 21:30N 45°18' W 073°56'0 0.0
2017-Dec-29 20:59N 45°18' W 073°56'0 0.1
2017-Dec-29 20:30N 45°18' W 073°56'0 0.6
2017-Dec-29 20:00N 45°18' W 073°56'1 2.2
2017-Dec-29 19:25N 45°16' W 073°57'0 0.9
2017-Dec-29 18:59N 45°16' W 073°57'0 0.0
2017-Dec-29 18:30N 45°16' W 073°57'0 0.0
2017-Dec-29 18:00N 45°16' W 073°57'0 0.0
2017-Dec-29 17:30N 45°16' W 073°57'0 0.0
2017-Dec-29 17:00N 45°16' W 073°57'0 0.0
2017-Dec-29 16:30N 45°16' W 073°57'0 0.0
2017-Dec-29 16:00N 45°16' W 073°57'0 0.0
2017-Dec-29 15:30N 45°16' W 073°57'0 0.0
2017-Dec-29 15:00N 45°16' W 073°57'0 0.0
2017-Dec-29 14:30N 45°16' W 073°57'0 0.0
2017-Dec-29 14:00N 45°16' W 073°57'0 0.0
2017-Dec-29 13:30N 45°16' W 073°57'0 0.0
2017-Dec-29 12:42N 45°16' W 073°57'0 0.1
2017-Dec-29 12:30N 45°16' W 073°57'0 0.0
2017-Dec-29 11:55N 45°16' W 073°57'0 0.0
2017-Dec-29 11:30N 45°16' W 073°57'0 0.0
2017-Dec-29 11:00N 45°16' W 073°57'0 0.0
2017-Dec-29 10:30N 45°16' W 073°57'0 0.0
2017-Dec-29 10:00N 45°16' W 073°57'0 0.0
2017-Dec-29 09:30N 45°16' W 073°57'0 0.0
2017-Dec-29 09:00N 45°16' W 073°57'0 0.0
2017-Dec-29 08:30N 45°16' W 073°57'0 0.0
2017-Dec-29 08:00N 45°16' W 073°57'0 0.1
2017-Dec-29 07:30N 45°16' W 073°57'0 0.0
2017-Dec-29 07:00N 45°16' W 073°57'0 0.0
2017-Dec-29 06:29N 45°16' W 073°57'0 0.0
2017-Dec-29 05:59N 45°16' W 073°57'0 0.0
2017-Dec-29 05:30N 45°16' W 073°57'0 0.0
2017-Dec-29 05:00N 45°16' W 073°57'0 0.0
2017-Dec-29 04:30N 45°16' W 073°57'0 0.0
2017-Dec-29 04:00N 45°16' W 073°57'0 0.0
2017-Dec-29 03:29N 45°16' W 073°57'0 0.4
2017-Dec-29 02:58N 45°16' W 073°57'4 8.2
2017-Dec-29 02:27N 45°13' W 074°02'  

Dump ship's entire track history